Time;durP1;ratioP1;P1;durP2;ratioP2;P2;SDS_P1;SDS_P2;PMS_P1;PMS_P2;Temp;Humidity;BMP_temperature;BMP_pressure;BME280_temperature;BME280_humidity;BME280_pressure;Samples;Min_cycle;Max_cycle;Signal;HPM_P1;HPM_P2
2022/03/18 00:01:49;;;;;;;11.10;5.17;;;10.60;99.90;;;;;;5066179;28;21013;-72
2022/03/18 00:04:14;;;;;;;9.73;4.80;;;10.50;99.90;;;;;;5061271;28;20452;-73
2022/03/18 00:06:40;;;;;;;11.60;4.90;;;10.30;99.90;;;;;;5066532;28;20175;-74
2022/03/18 00:09:07;;;;;;;6.97;4.70;;;10.30;99.90;;;;;;5060849;28;20290;-73
2022/03/18 00:11:32;;;;;;;7.60;4.43;;;10.30;99.90;;;;;;5063251;28;20994;-74
2022/03/18 00:13:58;;;;;;;5.97;4.63;;;10.30;99.90;;;;;;5064292;28;20253;-73
2022/03/18 00:16:26;;;;;;;6.60;4.50;;;10.20;99.90;;;;;;5063554;28;20207;-73
2022/03/18 00:18:52;;;;;;;9.30;5.17;;;10.20;99.90;;;;;;5048029;28;20189;-73
2022/03/18 00:21:19;;;;;;;8.07;5.77;;;10.30;99.90;;;;;;5063918;28;20845;-73
2022/03/18 00:23:44;;;;;;;11.43;4.63;;;10.10;99.90;;;;;;5065370;28;20203;-72
2022/03/18 00:26:13;;;;;;;11.30;5.50;;;10.00;99.90;;;;;;5063050;28;20460;-73
2022/03/18 00:28:39;;;;;;;8.43;4.70;;;10.10;99.90;;;;;;5058997;28;20612;-73
2022/03/18 00:31:06;;;;;;;9.80;5.67;;;10.20;99.90;;;;;;5062721;28;20429;-73
2022/03/18 00:33:32;;;;;;;8.43;5.03;;;10.20;99.90;;;;;;5062094;28;20461;-72
2022/03/18 00:35:57;;;;;;;7.03;4.03;;;10.30;99.90;;;;;;5062196;28;20454;-73
2022/03/18 00:38:23;;;;;;;8.53;4.90;;;10.30;99.90;;;;;;5043161;28;20183;-73
2022/03/18 00:40:50;;;;;;;6.20;4.30;;;10.30;99.90;;;;;;5060198;28;20620;-73
2022/03/18 00:43:16;;;;;;;8.53;5.03;;;10.40;99.90;;;;;;5058112;28;20203;-74
2022/03/18 00:45:42;;;;;;;8.20;5.43;;;10.40;99.90;;;;;;5042441;28;21092;-74
2022/03/18 00:53:36;;;;;;;12.30;4.90;;;10.00;99.90;;;;;;5058710;28;20468;-72
2022/03/18 00:56:01;;;;;;;7.83;4.77;;;10.10;99.90;;;;;;5042730;28;20425;-74
2022/03/18 00:58:27;;;;;;;7.83;4.70;;;10.00;99.90;;;;;;5043524;28;20198;-73
2022/03/18 01:00:53;;;;;;;5.27;4.77;;;10.10;99.90;;;;;;5055372;28;20258;-73
2022/03/18 01:03:19;;;;;;;6.50;4.50;;;10.00;99.90;;;;;;5060416;28;20203;-72
2022/03/18 01:05:45;;;;;;;9.50;5.80;;;10.10;99.90;;;;;;5060664;28;20447;-74
2022/03/18 01:08:10;;;;;;;7.53;5.53;;;10.10;99.90;;;;;;5058352;28;20678;-71
2022/03/18 01:10:36;;;;;;;19.07;7.40;;;10.10;99.90;;;;;;5055483;28;20274;-76
2022/03/18 01:13:02;;;;;;;12.60;5.53;;;10.10;99.90;;;;;;5058654;28;20212;-74
2022/03/18 01:15:28;;;;;;;6.33;5.10;;;10.10;99.90;;;;;;5057998;28;21401;-73
2022/03/18 01:17:54;;;;;;;7.30;5.13;;;10.20;99.90;;;;;;5057960;28;20676;-74
2022/03/18 01:20:19;;;;;;;5.53;5.03;;;10.20;99.90;;;;;;5055626;28;20216;-72
2022/03/18 01:22:45;;;;;;;11.37;4.67;;;10.20;99.90;;;;;;5062745;28;20559;-74
2022/03/18 01:25:11;;;;;;;8.53;6.00;;;10.20;99.90;;;;;;5060641;28;20274;-75
2022/03/18 01:27:36;;;;;;;11.20;5.50;;;10.10;99.90;;;;;;5059025;28;20654;-73
2022/03/18 01:30:02;;;;;;;9.93;4.77;;;10.00;99.90;;;;;;5060254;28;20195;-74
2022/03/18 01:32:28;;;;;;;8.03;5.00;;;9.90;99.90;;;;;;5045605;28;20290;-74
2022/03/18 01:34:54;;;;;;;6.40;5.20;;;9.90;99.90;;;;;;5058490;28;20187;-74
2022/03/18 01:37:19;;;;;;;11.20;5.03;;;10.00;99.90;;;;;;5059512;28;20183;-73
2022/03/18 01:39:45;;;;;;;9.90;5.60;;;10.00;99.90;;;;;;5059427;28;20602;-74
2022/03/18 01:42:11;;;;;;;11.63;5.20;;;10.00;99.90;;;;;;5058002;28;20894;-74
2022/03/18 01:44:43;;;;;;;5.70;4.57;;;9.90;99.90;;;;;;5058380;28;20233;-75
2022/03/18 01:47:10;;;;;;;9.13;5.10;;;10.00;99.90;;;;;;5048522;28;20521;-73
2022/03/18 01:49:37;;;;;;;6.30;4.73;;;10.00;99.90;;;;;;5041698;28;20440;-73
2022/03/18 01:52:04;;;;;;;9.00;5.30;;;9.90;99.90;;;;;;5058440;28;20433;-74
2022/03/18 01:54:49;;;;;;;12.87;5.27;;;9.90;99.90;;;;;;5057410;28;20977;-73
2022/03/18 01:57:18;;;;;;;10.50;4.30;;;10.00;99.90;;;;;;5041625;28;20441;-74
2022/03/18 01:59:44;;;;;;;10.37;6.03;;;9.90;99.90;;;;;;5056378;28;20504;-74
2022/03/18 02:02:09;;;;;;;11.63;5.40;;;9.90;99.90;;;;;;5055896;28;20908;-73
2022/03/18 02:04:36;;;;;;;11.40;4.80;;;9.90;99.90;;;;;;5059485;28;20497;-73
2022/03/18 02:07:03;;;;;;;10.13;4.67;;;9.90;99.90;;;;;;5055413;28;20326;-74
2022/03/18 02:09:30;;;;;;;8.30;4.90;;;9.90;99.90;;;;;;5058915;28;20425;-75
2022/03/18 02:11:56;;;;;;;9.10;4.40;;;9.90;99.90;;;;;;5055348;28;20563;-75
2022/03/18 02:14:36;;;;;;;6.47;5.00;;;9.90;99.90;;;;;;5055185;28;20524;-74
2022/03/18 02:17:03;;;;;;;10.93;5.10;;;9.90;99.90;;;;;;5060166;28;20179;-74
2022/03/18 02:19:29;;;;;;;5.90;4.57;;;9.90;99.90;;;;;;5056525;28;20468;-75
2022/03/18 02:21:57;;;;;;;10.53;5.27;;;10.00;99.90;;;;;;5055670;28;20430;-74
2022/03/18 02:24:23;;;;;;;6.80;4.80;;;10.00;99.90;;;;;;5055008;28;20225;-74
2022/03/18 02:26:50;;;;;;;9.20;4.43;;;9.90;99.90;;;;;;5058113;28;20422;-73
2022/03/18 02:29:20;;;;;;;7.40;4.90;;;9.90;99.90;;;;;;5058058;28;20521;-73
2022/03/18 02:31:46;;;;;;;9.07;5.20;;;9.80;99.90;;;;;;5057478;28;20441;-73
2022/03/18 02:34:13;;;;;;;6.30;4.50;;;9.90;99.90;;;;;;5054092;28;20510;-73
2022/03/18 02:36:38;;;;;;;13.80;5.13;;;10.00;99.90;;;;;;5055824;28;20442;-74
2022/03/18 02:39:04;;;;;;;11.63;5.60;;;10.10;99.90;;;;;;5047672;28;20444;-74
2022/03/18 02:41:32;;;;;;;10.47;5.17;;;10.00;99.90;;;;;;5038912;28;20184;-72
2022/03/18 02:43:58;;;;;;;9.27;5.17;;;9.90;99.90;;;;;;5054844;28;20961;-74
2022/03/18 02:46:23;;;;;;;7.83;5.57;;;10.00;99.90;;;;;;5041781;28;20437;-73
2022/03/18 02:48:49;;;;;;;7.20;4.40;;;10.10;99.90;;;;;;5041454;28;20482;-73
2022/03/18 02:51:15;;;;;;;7.07;4.53;;;10.20;99.90;;;;;;5053264;28;20183;-73
2022/03/18 02:53:41;;;;;;;7.80;4.80;;;10.00;99.90;;;;;;5056273;28;20204;-74
2022/03/18 02:56:07;;;;;;;11.77;4.40;;;10.00;99.90;;;;;;5055766;28;20759;-74
2022/03/18 02:58:37;;;;;;;8.10;4.97;;;10.00;99.90;;;;;;5057982;28;20434;-75
2022/03/18 03:01:03;;;;;;;9.13;4.40;;;10.00;99.90;;;;;;5057821;28;21022;-75
2022/03/18 03:03:29;;;;;;;7.40;4.80;;;9.90;99.90;;;;;;5055232;28;20464;-74
2022/03/18 03:08:40;;;;;;;7.80;5.13;;;9.80;99.90;;;;;;5056327;28;20471;-75
2022/03/18 03:11:06;;;;;;;7.83;4.37;;;9.90;99.90;;;;;;5055072;28;20465;-75
2022/03/18 03:13:32;;;;;;;6.60;4.63;;;9.90;99.90;;;;;;5036537;28;20529;-75
2022/03/18 03:15:59;;;;;;;8.27;4.43;;;9.80;99.90;;;;;;5041144;28;20982;-74
2022/03/18 03:18:25;;;;;;;10.57;4.60;;;9.70;99.90;;;;;;5035049;28;20533;-74
2022/03/18 03:20:50;;;;;;;10.17;4.90;;;9.90;99.90;;;;;;5054346;28;21047;-75
2022/03/18 03:23:16;;;;;;;9.67;5.10;;;9.90;99.90;;;;;;5061732;28;20716;-74
2022/03/18 03:25:42;;;;;;;6.20;4.60;;;9.90;99.90;;;;;;5056334;28;20263;-74
2022/03/18 03:28:08;;;;;;;7.97;4.80;;;9.90;99.90;;;;;;5059519;28;20184;-75
2022/03/18 03:30:34;;;;;;;6.30;4.03;;;9.90;99.90;;;;;;5056245;28;20426;-74
2022/03/18 03:32:59;;;;;;;13.70;5.07;;;10.00;99.90;;;;;;5054630;28;20533;-74
2022/03/18 03:35:25;;;;;;;4.17;3.60;;;10.00;99.90;;;;;;5057609;28;20605;-74
2022/03/18 03:37:51;;;;;;;8.33;4.20;;;10.00;99.90;;;;;;5055586;28;20179;-74
2022/03/18 03:40:18;;;;;;;9.40;4.60;;;10.00;99.90;;;;;;5055560;28;20978;-74
2022/03/18 03:42:45;;;;;;;8.30;4.50;;;10.00;99.90;;;;;;5038553;28;20555;-74
2022/03/18 03:45:12;;;;;;;12.10;4.70;;;10.00;99.90;;;;;;5044122;28;20897;-73
2022/03/18 03:47:38;;;;;;;14.20;5.33;;;9.90;99.90;;;;;;5052575;28;20842;-74
2022/03/18 03:50:05;;;;;;;13.23;5.20;;;9.80;99.90;;;;;;5054626;28;20502;-75
2022/03/18 03:52:32;;;;;;;10.37;4.47;;;9.90;99.90;;;;;;5056447;28;20463;-76
2022/03/18 03:54:57;;;;;;;7.63;4.70;;;9.90;99.90;;;;;;5054715;28;20464;-75
2022/03/18 03:57:23;;;;;;;7.17;4.47;;;9.90;99.90;;;;;;5053606;28;20488;-75
2022/03/18 03:59:48;;;;;;;12.50;4.80;;;9.70;99.90;;;;;;5055350;28;20221;-76
2022/03/18 04:02:14;;;;;;;7.30;4.20;;;9.90;99.90;;;;;;5053759;28;20823;-72
2022/03/18 04:04:40;;;;;;;8.57;4.70;;;9.80;99.90;;;;;;5055181;28;20267;-72
2022/03/18 04:07:05;;;;;;;7.90;4.47;;;9.70;99.90;;;;;;5043127;28;20179;-74
2022/03/18 04:09:31;;;;;;;10.57;4.73;;;9.70;99.90;;;;;;5039962;28;20184;-74
2022/03/18 04:11:57;;;;;;;8.50;4.20;;;9.60;99.90;;;;;;5060089;28;20233;-74
2022/03/18 04:14:23;;;;;;;15.23;4.63;;;9.60;99.90;;;;;;5059940;28;20550;-75
2022/03/18 04:16:49;;;;;;;7.20;4.53;;;9.70;99.90;;;;;;5041372;28;21149;-74
2022/03/18 04:19:14;;;;;;;7.57;4.80;;;9.70;99.90;;;;;;5047161;28;20516;-75
2022/03/18 04:21:41;;;;;;;12.27;4.87;;;9.80;99.90;;;;;;5059409;28;20215;-76
2022/03/18 04:24:07;;;;;;;8.43;3.90;;;9.70;99.90;;;;;;5059851;28;20596;-75
2022/03/18 04:26:32;;;;;;;10.90;5.30;;;9.70;99.90;;;;;;5059139;28;20433;-75
2022/03/18 04:28:58;;;;;;;7.20;4.30;;;9.50;99.90;;;;;;5041530;28;20175;-74
2022/03/18 04:31:24;;;;;;;14.60;5.50;;;9.60;99.90;;;;;;5057411;28;20543;-75
2022/03/18 04:33:49;;;;;;;9.30;5.00;;;9.60;99.90;;;;;;5058608;28;20199;-75
2022/03/18 04:36:15;;;;;;;7.60;4.33;;;9.70;99.90;;;;;;5060619;28;20190;-75
2022/03/18 04:38:41;;;;;;;8.50;5.07;;;9.70;99.90;;;;;;5046792;28;20221;-76
2022/03/18 04:41:06;;;;;;;11.13;4.90;;;9.70;99.90;;;;;;5060451;28;20203;-75
2022/03/18 04:43:32;;;;;;;8.20;4.83;;;9.70;99.90;;;;;;5059730;28;20729;-74
2022/03/18 04:45:58;;;;;;;10.80;4.40;;;9.80;99.90;;;;;;5039999;28;20191;-75
2022/03/18 04:48:23;;;;;;;9.13;4.77;;;9.80;99.90;;;;;;5057274;28;20188;-74
2022/03/18 04:50:49;;;;;;;13.83;4.50;;;9.80;99.90;;;;;;5041328;28;20187;-73
2022/03/18 04:53:15;;;;;;;7.70;4.70;;;9.80;99.90;;;;;;5056289;28;20266;-74
2022/03/18 04:55:40;;;;;;;9.10;4.90;;;9.80;99.90;;;;;;5055690;28;20710;-73
2022/03/18 04:58:06;;;;;;;9.00;5.03;;;9.80;99.90;;;;;;5058250;28;20184;-73
2022/03/18 05:00:32;;;;;;;5.67;4.10;;;9.80;99.90;;;;;;5061300;28;20323;-73
2022/03/18 05:02:57;;;;;;;7.70;4.90;;;9.90;99.90;;;;;;5057685;28;20203;-73
2022/03/18 05:05:23;;;;;;;11.53;5.00;;;9.80;99.90;;;;;;5043694;28;20457;-73
2022/03/18 05:07:50;;;;;;;18.60;5.27;;;9.70;99.90;;;;;;5059278;28;20610;-74
2022/03/18 05:10:17;;;;;;;8.70;5.23;;;9.80;99.90;;;;;;5054835;28;20669;-74
2022/03/18 05:12:43;;;;;;;8.43;4.30;;;9.80;99.90;;;;;;5055137;28;20477;-75
2022/03/18 05:15:09;;;;;;;8.80;4.63;;;9.90;99.90;;;;;;5059805;28;20951;-73
2022/03/18 05:17:39;;;;;;;9.60;4.47;;;9.90;99.90;;;;;;5056866;28;20537;-73
2022/03/18 05:20:07;;;;;;;10.30;4.77;;;9.80;99.90;;;;;;5057853;28;21165;-74
2022/03/18 05:22:33;;;;;;;7.13;4.20;;;9.80;99.90;;;;;;5057630;28;20458;-73
2022/03/18 05:24:59;;;;;;;7.07;4.50;;;9.70;99.90;;;;;;5058579;28;20872;-73
2022/03/18 05:27:25;;;;;;;11.10;4.90;;;9.80;99.90;;;;;;5058350;28;20316;-74
2022/03/18 05:29:51;;;;;;;9.93;4.97;;;9.60;99.90;;;;;;5056472;28;20528;-74
2022/03/18 05:32:18;;;;;;;10.20;5.00;;;9.60;99.90;;;;;;5060446;28;20521;-72
2022/03/18 05:34:43;;;;;;;13.00;5.30;;;9.60;99.90;;;;;;5056864;28;20190;-73
2022/03/18 05:37:12;;;;;;;15.60;4.80;;;9.60;99.90;;;;;;5058649;28;20834;-73
2022/03/18 05:39:38;;;;;;;13.40;5.73;;;9.60;99.90;;;;;;5057775;28;20204;-72
2022/03/18 05:42:04;;;;;;;8.80;4.20;;;9.50;99.90;;;;;;5057729;28;20914;-73
2022/03/18 05:44:30;;;;;;;6.90;4.73;;;9.60;99.90;;;;;;5056759;28;20195;-74
2022/03/18 05:46:56;;;;;;;8.73;4.80;;;9.50;99.90;;;;;;5037326;28;20421;-76
2022/03/18 05:49:22;;;;;;;15.87;5.47;;;9.60;99.90;;;;;;5057658;28;21108;-75
2022/03/18 05:51:48;;;;;;;7.67;5.50;;;9.60;99.90;;;;;;5033814;28;20665;-75
2022/03/18 05:54:14;;;;;;;9.70;5.20;;;9.50;99.90;;;;;;5058972;28;20452;-75
2022/03/18 05:56:55;;;;;;;12.40;6.10;;;9.40;99.90;;;;;;5060193;28;20191;-73
2022/03/18 05:59:25;;;;;;;7.20;4.20;;;9.50;99.90;;;;;;5058404;28;20497;-74
2022/03/18 06:01:56;;;;;;;10.53;6.00;;;9.40;99.90;;;;;;5055358;28;20460;-73
2022/03/18 06:04:22;;;;;;;14.43;5.97;;;9.30;99.90;;;;;;5053461;28;20442;-73
2022/03/18 06:06:49;;;;;;;5.83;4.47;;;9.30;99.90;;;;;;5059337;28;20516;-74
2022/03/18 06:12:00;;;;;;;8.40;5.10;;;9.40;99.90;;;;;;5058783;28;20443;-74
2022/03/18 06:14:29;;;;;;;7.47;4.47;;;9.20;99.90;;;;;;5054153;28;20438;-73
2022/03/18 06:16:57;;;;;;;13.07;6.67;;;9.40;99.90;;;;;;5060888;28;20191;-73
2022/03/18 06:19:24;;;;;;;10.73;5.43;;;9.50;99.90;;;;;;5061375;28;20480;-74
2022/03/18 06:21:50;;;;;;;10.50;4.87;;;9.60;99.90;;;;;;5057167;28;20532;-73
2022/03/18 06:24:17;;;;;;;9.47;4.87;;;9.40;99.90;;;;;;5052709;28;20547;-74
2022/03/18 06:26:43;;;;;;;11.13;5.73;;;9.40;99.90;;;;;;5044319;28;20199;-75
2022/03/18 06:29:12;;;;;;;18.17;6.60;;;9.40;99.90;;;;;;5055889;28;20449;-77
2022/03/18 06:31:39;;;;;;;8.93;5.53;;;9.50;99.90;;;;;;5042509;28;20433;-75
2022/03/18 06:34:05;;;;;;;11.57;6.20;;;9.50;99.90;;;;;;5053769;28;20613;-75
2022/03/18 06:36:31;;;;;;;15.30;6.20;;;9.60;99.90;;;;;;5055966;28;21000;-74
2022/03/18 06:38:57;;;;;;;10.60;5.47;;;9.50;99.90;;;;;;5057918;28;20540;-76
2022/03/18 06:41:23;;;;;;;9.57;5.20;;;9.40;99.90;;;;;;5058350;28;20590;-76
2022/03/18 06:43:49;;;;;;;10.00;5.63;;;9.50;99.90;;;;;;5057486;28;20204;-76
2022/03/18 06:46:15;;;;;;;7.53;5.33;;;9.50;99.90;;;;;;5056206;28;20191;-75
2022/03/18 06:48:42;;;;;;;9.97;5.07;;;9.60;99.90;;;;;;5053117;28;20433;-76
2022/03/18 06:51:08;;;;;;;11.10;5.23;;;9.60;99.90;;;;;;5056609;28;20445;-76
2022/03/18 06:53:34;;;;;;;13.80;6.73;;;9.70;99.90;;;;;;5053619;28;20460;-76
2022/03/18 06:56:00;;;;;;;13.10;6.80;;;9.50;99.90;;;;;;5055663;28;20987;-76
2022/03/18 06:58:27;;;;;;;9.53;5.50;;;9.60;99.90;;;;;;5055936;28;20191;-77
2022/03/18 07:00:54;;;;;;;14.53;6.50;;;9.70;99.90;;;;;;5054903;28;20241;-77
2022/03/18 07:03:20;;;;;;;10.37;5.63;;;9.70;99.90;;;;;;5054322;28;20488;-76
2022/03/18 07:05:46;;;;;;;10.47;6.47;;;9.60;99.90;;;;;;5055270;28;20781;-76
2022/03/18 07:08:12;;;;;;;9.73;6.13;;;9.60;99.90;;;;;;5057888;28;21010;-76
2022/03/18 07:10:38;;;;;;;10.20;6.70;;;9.60;99.90;;;;;;5057201;28;20184;-77
2022/03/18 07:13:03;;;;;;;8.13;5.20;;;9.60;99.90;;;;;;5056412;28;20460;-76
2022/03/18 07:15:29;;;;;;;10.10;5.90;;;9.60;99.90;;;;;;5051442;28;21026;-76
2022/03/18 07:17:55;;;;;;;11.50;5.90;;;9.50;99.90;;;;;;5046923;28;20178;-75
2022/03/18 07:20:26;;;;;;;12.40;6.57;;;9.50;99.90;;;;;;5056305;28;20242;-75
2022/03/18 07:23:16;;;;;;;9.83;4.97;;;9.60;99.90;;;;;;5056912;28;20203;-75
2022/03/18 07:25:47;;;;;;;10.23;6.37;;;9.70;99.90;;;;;;5053316;28;20451;-75
2022/03/18 07:28:15;;;;;;;9.93;5.60;;;9.60;99.90;;;;;;5057166;28;20510;-76
2022/03/18 07:30:43;;;;;;;21.30;7.93;;;9.60;99.90;;;;;;5037878;28;20446;-77
2022/03/18 07:33:09;;;;;;;11.37;6.40;;;9.60;99.90;;;;;;5055907;28;20556;-74
2022/03/18 07:35:35;;;;;;;16.03;5.90;;;9.50;99.90;;;;;;5058564;28;20545;-75
2022/03/18 07:38:03;;;;;;;13.73;7.00;;;9.50;99.90;;;;;;5053592;28;20434;-75
2022/03/18 07:40:29;;;;;;;9.70;5.93;;;9.60;99.90;;;;;;5058157;28;20472;-77
2022/03/18 07:42:57;;;;;;;12.30;6.50;;;9.60;99.90;;;;;;5054255;28;20434;-76
2022/03/18 07:45:28;;;;;;;10.83;5.87;;;9.70;99.90;;;;;;5056286;28;20544;-75
2022/03/18 07:47:56;;;;;;;9.87;5.70;;;9.70;99.90;;;;;;5057183;28;20924;-77
2022/03/18 07:50:23;;;;;;;13.03;6.00;;;9.70;99.90;;;;;;5059876;28;20931;-76
2022/03/18 07:52:50;;;;;;;19.50;8.20;;;9.60;99.90;;;;;;5057260;28;20457;-73
2022/03/18 07:55:20;;;;;;;8.23;5.30;;;9.60;99.90;;;;;;5060251;28;20792;-76
2022/03/18 07:57:46;;;;;;;12.80;6.30;;;9.60;99.90;;;;;;5044079;28;20652;-75
2022/03/18 08:00:14;;;;;;;8.60;5.93;;;9.60;99.90;;;;;;5057602;28;20850;-75
2022/03/18 08:02:41;;;;;;;15.83;6.83;;;9.70;99.90;;;;;;5060359;28;20440;-75
2022/03/18 08:05:07;;;;;;;10.30;6.23;;;9.60;99.90;;;;;;5039761;28;20434;-76
2022/03/18 08:07:34;;;;;;;14.73;5.80;;;9.60;99.90;;;;;;5058980;28;20414;-75
2022/03/18 08:10:00;;;;;;;16.47;5.83;;;9.50;99.90;;;;;;5055390;28;20437;-76
2022/03/18 08:12:29;;;;;;;16.40;10.90;;;9.50;99.90;;;;;;5058969;28;20449;-74
2022/03/18 08:14:59;;;;;;;13.00;7.67;;;9.40;99.90;;;;;;5042001;28;20179;-75
2022/03/18 08:17:26;;;;;;;16.40;6.87;;;9.40;99.90;;;;;;5055378;28;20430;-75
2022/03/18 08:19:52;;;;;;;16.33;7.30;;;9.40;99.90;;;;;;5056435;28;20462;-75
2022/03/18 08:22:22;;;;;;;11.37;6.30;;;9.50;99.90;;;;;;5054851;28;20433;-76
2022/03/18 08:24:48;;;;;;;17.80;8.70;;;9.60;99.90;;;;;;5045914;28;20440;-75
2022/03/18 08:27:14;;;;;;;7.87;6.10;;;9.70;99.90;;;;;;5053111;28;20444;-76
2022/03/18 08:29:40;;;;;;;12.17;6.47;;;9.70;99.90;;;;;;5040065;28;21006;-77
2022/03/18 08:32:07;;;;;;;14.47;6.07;;;9.80;99.90;;;;;;5060982;28;20428;-77
2022/03/18 08:34:32;;;;;;;13.90;6.30;;;9.80;99.90;;;;;;5057915;28;20188;-75
2022/03/18 08:36:58;;;;;;;9.87;6.90;;;9.80;99.90;;;;;;5057320;28;20984;-77
2022/03/18 08:39:24;;;;;;;10.90;5.83;;;9.80;99.90;;;;;;5060304;28;20675;-77
2022/03/18 08:41:50;;;;;;;14.70;9.83;;;9.90;99.90;;;;;;5054840;28;20713;-77
2022/03/18 08:44:19;;;;;;;14.40;7.83;;;10.00;99.90;;;;;;5055221;28;20207;-77
2022/03/18 08:46:46;;;;;;;15.37;7.13;;;10.20;99.90;;;;;;5058260;28;20800;-77
2022/03/18 08:49:12;;;;;;;15.27;8.63;;;10.20;99.90;;;;;;5058486;28;20431;-77
2022/03/18 08:51:38;;;;;;;12.23;7.00;;;10.20;99.90;;;;;;5060273;28;20437;-77
2022/03/18 08:54:05;;;;;;;15.97;7.00;;;10.30;99.90;;;;;;5055607;28;20195;-76
2022/03/18 08:56:31;;;;;;;13.00;9.20;;;10.30;99.90;;;;;;5040409;28;20426;-76
2022/03/18 08:58:57;;;;;;;13.67;7.90;;;10.30;99.90;;;;;;5056687;28;20467;-75
2022/03/18 09:01:23;;;;;;;14.53;7.53;;;10.40;99.90;;;;;;5058242;28;20477;-76
2022/03/18 09:03:49;;;;;;;16.10;8.03;;;10.30;99.90;;;;;;5059138;28;20453;-75
2022/03/18 09:06:15;;;;;;;14.20;7.67;;;10.40;99.90;;;;;;5058320;28;20465;-76
2022/03/18 09:08:41;;;;;;;14.33;7.60;;;10.40;99.90;;;;;;5058685;28;20194;-75
2022/03/18 09:11:07;;;;;;;15.90;7.77;;;10.50;99.90;;;;;;5057790;28;20495;-76
2022/03/18 09:13:34;;;;;;;15.73;7.73;;;10.60;99.90;;;;;;5057070;28;20456;-76
2022/03/18 09:16:04;;;;;;;17.47;8.60;;;10.60;99.90;;;;;;5063417;28;20853;-75
2022/03/18 09:18:30;;;;;;;23.70;9.70;;;10.70;99.90;;;;;;5059653;28;20430;-76
2022/03/18 09:20:56;;;;;;;12.00;7.93;;;10.70;99.90;;;;;;5062883;28;20813;-76
2022/03/18 09:23:21;;;;;;;13.80;8.60;;;10.90;99.90;;;;;;5056507;28;20466;-75
2022/03/18 09:25:47;;;;;;;15.80;9.00;;;10.90;99.90;;;;;;5060720;28;20652;-75
2022/03/18 09:28:13;;;;;;;9.03;7.00;;;10.90;99.90;;;;;;5042539;28;20645;-74
2022/03/18 09:30:39;;;;;;;10.97;7.23;;;11.00;99.90;;;;;;5057107;28;20199;-76
2022/03/18 09:33:05;;;;;;;13.77;7.97;;;11.10;99.90;;;;;;5057900;28;20221;-76
2022/03/18 09:35:31;;;;;;;15.97;8.00;;;11.10;99.90;;;;;;5054946;28;20883;-76
2022/03/18 09:37:56;;;;;;;13.30;7.53;;;11.10;99.90;;;;;;5058360;28;20401;-75
2022/03/18 09:40:22;;;;;;;13.20;8.00;;;11.10;99.90;;;;;;5037948;28;20207;-75
2022/03/18 09:42:59;;;;;;;19.70;8.80;;;11.00;99.90;;;;;;5059519;28;20202;-77
2022/03/18 09:45:30;;;;;;;13.67;8.40;;;11.10;99.90;;;;;;5057104;28;20183;-76
2022/03/18 09:47:57;;;;;;;14.50;8.30;;;11.20;99.90;;;;;;5054296;28;20440;-76
2022/03/18 09:50:23;;;;;;;20.63;10.00;;;11.30;99.90;;;;;;5056025;28;20935;-75
2022/03/18 09:52:48;;;;;;;24.03;10.47;;;11.40;99.90;;;;;;5055646;28;20449;-77
2022/03/18 09:55:14;;;;;;;16.87;11.00;;;11.40;99.90;;;;;;5033426;28;20188;-75
2022/03/18 09:57:39;;;;;;;18.40;12.10;;;11.40;99.90;;;;;;5057559;28;20258;-73
2022/03/18 10:00:06;;;;;;;18.40;12.70;;;11.50;99.90;;;;;;5059950;28;20333;-74
2022/03/18 10:02:33;;;;;;;17.23;11.67;;;11.60;99.90;;;;;;5056324;28;20202;-74
2022/03/18 10:05:02;;;;;;;16.60;11.33;;;11.70;99.90;;;;;;5056669;28;20543;-77
2022/03/18 10:07:29;;;;;;;17.80;11.50;;;11.80;99.90;;;;;;5042349;28;20426;-75
2022/03/18 10:10:04;;;;;;;22.37;12.57;;;11.70;99.90;;;;;;5058323;28;20513;-75
2022/03/18 10:12:36;;;;;;;17.53;11.47;;;11.60;99.90;;;;;;5056659;28;20452;-75
2022/03/18 10:15:10;;;;;;;20.70;13.37;;;11.70;99.90;;;;;;5055812;28;20819;-75
2022/03/18 10:17:52;;;;;;;23.70;15.27;;;11.80;99.90;;;;;;5046162;28;20438;-76
2022/03/18 10:20:25;;;;;;;19.70;13.33;;;11.90;99.90;;;;;;5052024;28;20704;-75
2022/03/18 10:22:52;;;;;;;16.40;12.40;;;11.80;99.90;;;;;;5057210;28;20458;-76
2022/03/18 10:25:53;;;;;;;19.97;12.97;;;11.90;99.90;;;;;;5057452;28;20449;-76
2022/03/18 10:28:43;;;;;;;23.50;15.20;;;12.00;99.90;;;;;;5054016;28;20476;-76
2022/03/18 10:31:14;;;;;;;19.23;13.43;;;12.10;99.90;;;;;;5056685;28;20447;-77
2022/03/18 10:37:12;;;;;;;21.53;16.03;;;12.00;99.90;;;;;;5057719;28;20444;-76
2022/03/18 10:39:48;;;;;;;21.20;15.40;;;12.10;99.90;;;;;;5055392;28;20469;-76
2022/03/18 10:42:24;;;;;;;22.90;14.60;;;12.10;99.90;;;;;;5056855;28;20498;-76
2022/03/18 10:45:00;;;;;;;18.40;13.40;;;12.20;99.90;;;;;;5056858;28;20478;-77
2022/03/18 10:47:35;;;;;;;22.97;13.90;;;12.30;99.90;;;;;;5055577;28;20426;-76
2022/03/18 10:50:11;;;;;;;20.00;14.47;;;12.40;99.90;;;;;;5054628;28;20429;-77
2022/03/18 10:52:57;;;;;;;23.00;13.73;;;12.40;99.90;;;;;;5053105;28;20457;-77
2022/03/18 10:55:36;;;;;;;21.87;14.27;;;12.70;99.90;;;;;;5052553;28;20480;-76
2022/03/18 10:58:12;;;;;;;21.20;14.77;;;12.70;99.90;;;;;;5057381;28;20803;-76
2022/03/18 11:00:50;;;;;;;21.43;15.73;;;12.70;99.90;;;;;;5058746;28;21233;-76
2022/03/18 11:03:16;;;;;;;25.00;15.90;;;12.80;99.90;;;;;;5057981;28;20449;-77
2022/03/18 11:05:43;;;;;;;21.00;15.30;;;12.80;99.90;;;;;;5052276;28;20422;-76
2022/03/18 11:08:22;;;;;;;26.30;16.97;;;12.70;99.90;;;;;;5038443;28;21112;-76
2022/03/18 11:11:14;;;;;;;22.77;15.63;;;12.80;99.90;;;;;;5055242;28;20445;-77
2022/03/18 11:14:06;;;;;;;28.13;16.60;;;13.00;99.90;;;;;;5037131;28;20458;-73
2022/03/18 11:16:36;;;;;;;26.13;16.20;;;13.20;99.90;;;;;;5052056;28;20433;-74
2022/03/18 11:19:06;;;;;;;30.00;16.73;;;13.10;99.90;;;;;;5058475;28;20452;-73
2022/03/18 11:21:35;;;;;;;20.63;15.77;;;13.10;99.90;;;;;;5050453;28;20457;-73
2022/03/18 11:24:13;;;;;;;21.47;15.80;;;13.20;99.90;;;;;;5053608;28;20460;-74
2022/03/18 11:26:47;;;;;;;21.37;15.33;;;13.20;99.90;;;;;;5036488;28;20425;-75
2022/03/18 11:29:19;;;;;;;21.47;15.60;;;13.30;99.90;;;;;;5053817;28;20995;-75
2022/03/18 11:32:15;;;;;;;24.33;16.33;;;13.30;99.90;;;;;;5054707;28;20791;-76
2022/03/18 11:34:51;;;;;;;21.00;15.10;;;13.30;99.90;;;;;;5055012;28;20432;-76
2022/03/18 11:37:18;;;;;;;21.57;14.37;;;13.30;99.90;;;;;;5047897;28;20433;-74
2022/03/18 11:39:46;;;;;;;25.27;15.90;;;13.20;99.90;;;;;;5052594;28;20457;-76
2022/03/18 11:42:16;;;;;;;23.10;15.57;;;13.40;99.90;;;;;;5044292;28;21097;-76
2022/03/18 11:44:44;;;;;;;21.60;15.63;;;13.30;99.90;;;;;;5054940;28;20433;-75
2022/03/18 11:47:22;;;;;;;24.70;15.83;;;13.50;99.90;;;;;;5036876;28;20429;-75
2022/03/18 11:49:48;;;;;;;22.93;14.70;;;13.70;99.90;;;;;;5038244;28;20436;-75
2022/03/18 11:52:13;;;;;;;24.43;14.80;;;13.60;99.90;;;;;;5056510;28;20434;-75
2022/03/18 11:55:07;;;;;;;23.60;15.03;;;13.80;99.90;;;;;;5052902;28;20195;-73
2022/03/18 11:57:34;;;;;;;19.67;14.10;;;13.90;99.90;;;;;;5038648;28;20180;-73
2022/03/18 12:00:05;;;;;;;22.27;14.17;;;14.10;99.90;;;;;;5058173;28;20465;-73
2022/03/18 12:02:38;;;;;;;19.60;14.40;;;14.20;99.90;;;;;;5056155;28;20437;-73
2022/03/18 12:05:05;;;;;;;25.53;16.20;;;14.40;99.90;;;;;;5053044;28;20503;-73
2022/03/18 12:07:59;;;;;;;21.37;16.03;;;14.60;99.90;;;;;;5034334;28;20441;-73
2022/03/18 12:10:52;;;;;;;21.80;15.73;;;14.80;99.90;;;;;;5049942;28;20460;-73
2022/03/18 12:13:18;;;;;;;22.43;15.93;;;15.10;99.90;;;;;;5036518;28;20457;-73
2022/03/18 12:15:44;;;;;;;24.60;15.77;;;15.20;99.90;;;;;;5054310;28;20467;-73
2022/03/18 12:18:10;;;;;;;22.10;16.57;;;15.20;99.90;;;;;;5057262;28;20445;-73
2022/03/18 12:20:38;;;;;;;21.97;14.73;;;15.30;99.90;;;;;;5058001;28;20214;-73
2022/03/18 12:23:08;;;;;;;26.93;16.63;;;15.30;99.90;;;;;;5051481;28;20493;-73
2022/03/18 12:25:39;;;;;;;25.73;16.10;;;15.60;99.90;;;;;;5050613;28;20434;-73
2022/03/18 12:28:06;;;;;;;27.90;16.80;;;15.80;99.90;;;;;;5053375;28;20548;-74
2022/03/18 12:30:32;;;;;;;25.50;15.50;;;16.20;99.90;;;;;;5036298;28;20532;-73
2022/03/18 12:33:05;;;;;;;24.70;16.40;;;16.30;99.90;;;;;;5043573;28;20871;-73
2022/03/18 12:35:35;;;;;;;26.00;17.93;;;16.50;99.90;;;;;;5059512;28;20945;-73
2022/03/18 12:38:16;;;;;;;23.33;16.80;;;16.50;99.90;;;;;;5059252;28;20494;-77
2022/03/18 12:40:58;;;;;;;23.37;16.37;;;16.50;99.90;;;;;;5056904;28;20550;-76
2022/03/18 12:43:26;;;;;;;31.47;17.70;;;16.30;99.90;;;;;;5057804;28;20492;-77
2022/03/18 12:45:52;;;;;;;21.60;16.70;;;16.10;99.90;;;;;;5036856;28;20601;-76
2022/03/18 12:48:20;;;;;;;20.53;16.90;;;16.00;99.90;;;;;;5058764;28;20547;-76
2022/03/18 12:50:47;;;;;;;23.50;17.23;;;16.10;99.90;;;;;;5055975;28;20183;-76
2022/03/18 12:53:24;;;;;;;22.20;15.80;;;16.10;99.90;;;;;;5060566;28;20460;-76
2022/03/18 12:55:55;;;;;;;24.27;16.10;;;16.10;99.90;;;;;;5042038;28;20421;-76
2022/03/18 12:58:25;;;;;;;37.53;17.40;;;16.00;99.90;;;;;;5042393;28;20438;-75
2022/03/18 13:00:57;;;;;;;26.47;15.47;;;15.80;99.90;;;;;;5041437;28;20465;-75
2022/03/18 13:03:28;;;;;;;24.60;16.83;;;15.70;99.90;;;;;;5061805;28;20446;-76